createdAt,value
2018-04-28T00:01:11.654Z,13.60
2018-04-28T00:06:13.400Z,13.60
2018-04-28T00:11:14.422Z,13.50
2018-04-28T00:16:15.419Z,13.40
2018-04-28T00:21:16.411Z,13.40
2018-04-28T00:26:18.151Z,13.30
2018-04-28T00:31:20.121Z,13.30
2018-04-28T00:36:21.974Z,13.20
2018-04-28T00:41:22.970Z,13.20
2018-04-28T00:46:24.018Z,13.00
2018-04-28T00:51:29.115Z,13.00
2018-04-28T00:56:30.166Z,13.00
2018-04-28T01:01:38.301Z,13.00
2018-04-28T01:06:39.355Z,12.90
2018-04-28T01:11:41.982Z,12.70
2018-04-28T01:16:46.907Z,12.60
2018-04-28T01:21:47.940Z,12.60
2018-04-28T01:27:12.769Z,12.50
2018-04-28T01:32:14.522Z,12.50
2018-04-28T01:42:48.713Z,12.70
2018-04-28T01:47:53.316Z,13.20
2018-04-28T01:52:56.114Z,13.10
2018-04-28T02:03:23.776Z,13.20
2018-04-28T02:08:24.803Z,13.10
2018-04-28T02:13:27.670Z,13.00
2018-04-28T02:18:37.005Z,12.90
2018-04-28T02:23:45.603Z,12.70
2018-04-28T02:29:00.112Z,12.60
2018-04-28T02:40:05.461Z,12.50
2018-04-28T02:45:06.449Z,12.40
2018-04-28T02:50:28.215Z,12.30
2018-04-28T02:55:29.231Z,12.30
2018-04-28T03:00:33.971Z,12.60
2018-04-28T03:05:36.786Z,12.40
2018-04-28T03:10:37.788Z,12.30
2018-04-28T03:15:38.805Z,12.20
2018-04-28T03:20:40.549Z,12.10
2018-04-28T03:25:42.426Z,12.00
2018-04-28T03:30:45.255Z,12.00
2018-04-28T03:35:56.214Z,12.10
2018-04-28T03:40:59.098Z,12.20
2018-04-28T03:46:13.165Z,12.20
2018-04-28T03:51:18.264Z,12.10
2018-04-28T03:56:24.130Z,11.90
2018-04-28T04:01:37.522Z,11.80
2018-04-28T04:12:37.108Z,11.60
2018-04-28T04:17:51.155Z,11.50
2018-04-28T04:23:19.247Z,11.40
2018-04-28T04:33:53.889Z,11.20
2018-04-28T04:38:58.470Z,11.10
2018-04-28T04:44:08.482Z,11.10
2018-04-28T04:49:15.643Z,11.10
2018-04-28T04:54:17.486Z,11.00
2018-04-28T05:05:02.830Z,11.40
2018-04-28T05:10:10.982Z,11.60
2018-04-28T05:20:52.832Z,12.00
2018-04-28T05:25:57.670Z,12.40
2018-04-28T05:31:10.829Z,12.90
2018-04-28T05:36:11.825Z,13.20
2018-04-28T05:41:25.141Z,13.40
2018-04-28T05:46:41.323Z,13.70
2018-04-28T05:51:57.290Z,14.10
2018-04-28T05:57:04.391Z,14.40
2018-04-28T06:07:58.274Z,14.60
2018-04-28T06:18:58.070Z,15.30
2018-04-28T06:23:59.066Z,15.20
2018-04-28T06:29:00.802Z,15.50
2018-04-28T06:34:01.798Z,15.40
2018-04-28T06:39:04.645Z,14.90
2018-04-28T06:44:05.659Z,14.80
2018-04-28T06:49:07.409Z,15.10
2018-04-28T06:54:08.395Z,15.10
2018-04-28T06:59:10.125Z,15.30
2018-04-28T07:04:11.118Z,15.20
2018-04-28T07:09:12.866Z,15.70
2018-04-28T07:14:13.865Z,15.70
2018-04-28T07:19:14.845Z,15.70
2018-04-28T07:24:15.857Z,15.90
2018-04-28T07:29:17.636Z,16.60
2018-04-28T07:34:18.590Z,16.50
2018-04-28T07:39:20.345Z,16.70
2018-04-28T07:44:21.341Z,16.70
2018-04-28T07:49:23.071Z,17.40
2018-04-28T07:54:24.064Z,17.30
2018-04-28T07:59:25.818Z,16.90
2018-04-28T08:04:26.825Z,16.90
2018-04-28T08:09:27.854Z,17.70
2018-04-28T08:14:29.593Z,17.30
2018-04-28T08:19:30.583Z,17.30
2018-04-28T08:24:32.325Z,18.00
2018-04-28T08:29:33.341Z,17.90
2018-04-28T08:34:34.338Z,18.20
2018-04-28T08:39:35.373Z,18.60
2018-04-28T08:44:36.413Z,18.50
2018-04-28T08:49:37.418Z,18.40
2018-04-28T08:54:38.417Z,18.10
2018-04-28T08:59:52.339Z,18.60
2018-04-28T09:04:53.350Z,18.50
2018-04-28T09:09:54.363Z,18.90
2018-04-28T09:14:55.369Z,19.20
2018-04-28T09:19:56.358Z,18.50
2018-04-28T09:24:57.348Z,19.30
2018-04-28T09:29:58.341Z,20.30
2018-04-28T09:34:59.358Z,20.10
2018-04-28T09:40:00.400Z,20.00
2018-04-28T09:45:01.366Z,20.60
2018-04-28T09:50:02.382Z,20.20
2018-04-28T09:55:03.376Z,19.90
2018-04-28T10:00:26.689Z,20.10
2018-04-28T10:05:28.411Z,19.70
2018-04-28T10:10:29.401Z,19.70
2018-04-28T10:15:30.399Z,19.30
2018-04-28T10:20:31.385Z,20.50
2018-04-28T10:25:32.385Z,20.10
2018-04-28T10:30:34.124Z,19.60
2018-04-28T10:35:35.166Z,19.50
2018-04-28T10:40:36.154Z,19.60
2018-04-28T10:45:37.151Z,20.50
2018-04-28T10:50:38.146Z,20.70
2018-04-28T10:55:39.149Z,20.70
2018-04-28T11:00:40.874Z,19.50
2018-04-28T11:05:41.861Z,19.50
2018-04-28T11:10:42.844Z,19.00
2018-04-28T11:15:44.601Z,18.40
2018-04-28T11:20:45.590Z,18.30
2018-04-28T11:25:46.648Z,18.20
2018-04-28T11:30:48.389Z,18.60
2018-04-28T11:35:50.121Z,18.20
2018-04-28T11:40:51.119Z,18.10
2018-04-28T11:45:52.102Z,18.40
2018-04-28T11:50:53.147Z,18.20
2018-04-28T11:55:54.906Z,17.70
2018-04-28T12:00:55.914Z,17.70
2018-04-28T12:05:56.904Z,18.30
2018-04-28T12:10:57.906Z,18.50
2018-04-28T12:15:58.898Z,18.50
2018-04-28T12:20:59.901Z,17.80
2018-04-28T12:26:00.927Z,17.60
2018-04-28T12:31:01.926Z,17.90
2018-04-28T12:36:03.712Z,18.10
2018-04-28T12:41:04.650Z,18.00
2018-04-28T12:46:06.451Z,18.20
2018-04-28T12:51:07.445Z,18.20
2018-04-28T12:56:08.434Z,18.20
2018-04-28T13:01:10.174Z,18.50
2018-04-28T13:06:11.190Z,18.40
2018-04-28T13:11:12.921Z,18.60
2018-04-28T13:16:13.958Z,18.60
2018-04-28T13:21:14.949Z,19.20
2018-04-28T13:26:15.967Z,19.20
2018-04-28T13:31:16.976Z,19.10
2018-04-28T13:36:18.737Z,19.30
2018-04-28T13:41:19.749Z,19.30
2018-04-28T13:46:20.770Z,19.10
2018-04-28T13:51:21.773Z,18.80
2018-04-28T13:56:22.810Z,18.60
2018-04-28T14:01:23.826Z,18.60
2018-04-28T14:06:24.834Z,18.90
2018-04-28T14:11:25.863Z,19.20
2018-04-28T14:16:27.610Z,19.30
2018-04-28T14:21:28.614Z,19.30
2018-04-28T14:26:30.377Z,19.50
2018-04-28T14:31:32.113Z,19.60
2018-04-28T14:36:33.136Z,19.50
2018-04-28T14:41:34.129Z,19.30
2018-04-28T14:46:35.170Z,19.20
2018-04-28T14:51:36.157Z,19.50
2018-04-28T14:56:37.158Z,19.50
2018-04-28T15:01:38.153Z,19.50
2018-04-28T15:06:39.150Z,19.40
2018-04-28T15:11:40.169Z,19.40
2018-04-28T15:16:41.184Z,19.20
2018-04-28T15:21:42.221Z,18.90
2018-04-28T15:26:43.973Z,19.00
2018-04-28T15:31:44.950Z,19.00
2018-04-28T15:36:46.683Z,18.80
2018-04-28T15:41:47.672Z,18.80
2018-04-28T15:46:48.702Z,18.70
2018-04-28T15:51:49.710Z,18.50
2018-04-28T15:56:51.474Z,18.90
2018-04-28T16:01:53.251Z,18.90
2018-04-28T16:06:55.042Z,18.80
2018-04-28T16:11:56.912Z,18.70
2018-04-28T16:16:58.666Z,18.50
2018-04-28T16:21:59.677Z,18.50
2018-04-28T16:27:00.673Z,18.40
2018-04-28T16:32:01.702Z,18.40
2018-04-28T16:37:02.689Z,18.40
2018-04-28T16:42:03.698Z,18.50
2018-04-28T16:47:04.714Z,18.20
2018-04-28T16:52:05.713Z,18.20
2018-04-28T16:57:06.726Z,18.20
2018-04-28T17:02:07.736Z,18.20
2018-04-28T17:07:08.723Z,17.90
2018-04-28T17:12:09.700Z,18.00
2018-04-28T17:17:10.766Z,17.80
2018-04-28T17:22:11.742Z,17.80
2018-04-28T17:27:13.479Z,17.70
2018-04-28T17:32:14.514Z,17.60
2018-04-28T17:37:15.597Z,17.60
2018-04-28T17:42:18.350Z,17.50
2018-04-28T17:47:19.391Z,17.40
2018-04-28T17:52:21.132Z,17.20
2018-04-28T17:57:22.170Z,17.20
2018-04-28T18:02:23.182Z,17.10
2018-04-28T18:07:25.011Z,16.70
2018-04-28T18:12:25.934Z,16.70
2018-04-28T18:17:26.925Z,16.60
2018-04-28T18:22:27.921Z,16.70
2018-04-28T18:27:29.685Z,16.40
2018-04-28T18:32:30.666Z,16.30
2018-04-28T18:37:32.425Z,16.40
2018-04-28T18:42:34.202Z,16.40
2018-04-28T18:47:35.974Z,16.30
2018-04-28T18:52:37.734Z,16.00
2018-04-28T18:57:38.747Z,15.90
2018-04-28T19:02:39.800Z,15.90
2018-04-28T19:07:40.802Z,15.70
2018-04-28T19:12:41.801Z,15.50
2018-04-28T19:17:42.919Z,15.30
2018-04-28T19:22:43.938Z,15.20
2018-04-28T19:27:44.945Z,15.30
2018-04-28T19:32:45.938Z,15.30
2018-04-28T19:37:46.946Z,15.20
2018-04-28T19:42:47.953Z,15.10
2018-04-28T19:47:48.986Z,15.00
2018-04-28T19:52:49.985Z,15.30
2018-04-28T19:57:50.993Z,15.20
2018-04-28T20:02:51.989Z,14.80
2018-04-28T20:07:53.083Z,15.00
2018-04-28T20:12:54.121Z,14.90
2018-04-28T20:17:55.118Z,15.00
2018-04-28T20:23:08.586Z,15.00
2018-04-28T20:28:09.598Z,14.80
2018-04-28T20:33:10.603Z,14.60
2018-04-28T20:38:12.349Z,14.40
2018-04-28T20:43:13.388Z,14.30
2018-04-28T20:48:14.506Z,14.30
2018-04-28T20:53:16.283Z,14.10
2018-04-28T20:58:17.333Z,14.00
2018-04-28T21:03:19.094Z,13.60
2018-04-28T21:08:20.169Z,13.50
2018-04-28T21:13:21.938Z,13.40
2018-04-28T21:18:23.017Z,13.30
2018-04-28T21:23:24.798Z,13.50
2018-04-28T21:28:25.804Z,13.50
2018-04-28T21:33:26.892Z,13.40
2018-04-28T21:38:28.882Z,13.40
2018-04-28T21:43:30.653Z,13.20
2018-04-28T21:48:32.423Z,13.10
2018-04-28T21:53:33.423Z,13.00
2018-04-28T21:58:34.406Z,12.70
2018-04-28T22:03:35.422Z,13.00
2018-04-28T22:08:36.417Z,12.90
2018-04-28T22:13:37.417Z,12.70
2018-04-28T22:18:39.172Z,12.40
2018-04-28T22:23:40.357Z,12.30
2018-04-28T22:28:41.165Z,12.30
2018-04-28T22:33:42.153Z,12.30
2018-04-28T22:38:43.129Z,12.20
2018-04-28T22:43:44.855Z,12.30
2018-04-28T22:48:45.861Z,12.30
2018-04-28T22:53:47.582Z,12.40
2018-04-28T22:58:48.616Z,12.30
2018-04-28T23:03:49.619Z,12.20
2018-04-28T23:08:50.625Z,12.20
2018-04-28T23:13:51.628Z,12.20
2018-04-28T23:18:52.638Z,12.20
2018-04-28T23:23:53.624Z,12.20
2018-04-28T23:28:54.626Z,12.20
2018-04-28T23:33:56.444Z,11.80
2018-04-28T23:38:57.442Z,11.70
2018-04-28T23:43:58.438Z,11.80
2018-04-28T23:48:59.455Z,11.70
2018-04-28T23:54:00.458Z,11.80
2018-04-28T23:59:01.456Z,11.80
